Time;durP1;ratioP1;P1;durP2;ratioP2;P2;SDS_P1;SDS_P2;PMS_P1;PMS_P2;Temp;Humidity;BMP_temperature;BMP_pressure;BME280_temperature;BME280_humidity;BME280_pressure;Samples;Min_cycle;Max_cycle;Signal;HPM_P1;HPM_P2
2021/08/10 00:00:32;;;;;;;6.28;2.97;;;;;;;17.98;72.36;101466.97;5035299;28;20392;-60
2021/08/10 00:03:00;;;;;;;6.32;3.83;;;;;;;17.91;72.50;101465.72;5032659;28;20061;-59
2021/08/10 00:05:27;;;;;;;6.22;3.45;;;;;;;17.83;72.80;101462.53;5045316;28;20141;-61
2021/08/10 00:07:55;;;;;;;6.47;3.50;;;;;;;17.76;73.12;101459.31;5032834;28;20444;-57
2021/08/10 00:10:23;;;;;;;7.22;3.60;;;;;;;17.72;73.38;101455.53;5032548;28;20136;-60
2021/08/10 00:12:51;;;;;;;8.73;3.58;;;;;;;17.66;73.66;101449.28;5032728;28;20096;-61
2021/08/10 00:15:24;;;;;;;6.72;3.45;;;;;;;17.62;73.86;101451.00;5032789;28;20415;-60
2021/08/10 00:17:51;;;;;;;5.57;3.17;;;;;;;17.60;74.00;101450.47;5032221;28;20076;-58
2021/08/10 00:20:19;;;;;;;5.75;3.10;;;;;;;17.65;73.98;101457.84;5032272;28;20374;-61
2021/08/10 00:22:46;;;;;;;8.10;3.88;;;;;;;17.70;73.93;101459.69;5032332;28;20041;-58
2021/08/10 00:25:15;;;;;;;7.20;3.80;;;;;;;17.74;73.74;101453.28;5032336;28;20076;-57
2021/08/10 00:27:42;;;;;;;6.18;3.58;;;;;;;17.74;73.25;101464.31;5032066;28;20510;-59
2021/08/10 00:30:10;;;;;;;5.32;3.30;;;;;;;17.70;73.81;101463.25;5032455;28;20091;-61
2021/08/10 00:32:38;;;;;;;5.68;3.00;;;;;;;17.72;73.74;101468.50;5030978;28;20164;-60
2021/08/10 00:35:06;;;;;;;7.75;3.20;;;;;;;17.74;73.72;101475.34;5030965;28;20037;-59
2021/08/10 00:37:34;;;;;;;5.72;3.28;;;;;;;17.76;73.59;101470.34;5030849;28;20124;-60
2021/08/10 00:40:02;;;;;;;5.53;3.20;;;;;;;17.77;73.39;101466.47;5031175;28;20045;-60
2021/08/10 00:42:30;;;;;;;6.90;3.03;;;;;;;17.77;73.33;101460.94;5030747;28;20066;-60
2021/08/10 00:44:58;;;;;;;5.60;3.38;;;;;;;17.77;73.45;101460.94;5031025;28;20072;-59
2021/08/10 00:47:32;;;;;;;5.40;3.03;;;;;;;17.76;73.34;101462.06;5030667;28;20041;-59
2021/08/10 00:50:00;;;;;;;4.82;3.00;;;;;;;17.75;73.69;101457.69;5030872;28;20488;-60
2021/08/10 00:52:29;;;;;;;5.47;3.08;;;;;;;17.74;73.62;101455.22;5030853;28;20056;-60
2021/08/10 00:54:57;;;;;;;5.10;2.92;;;;;;;17.71;73.79;101456.66;5030636;28;20067;-59
2021/08/10 00:57:25;;;;;;;6.05;3.20;;;;;;;17.72;73.80;101454.72;5031232;28;20034;-60
2021/08/10 00:59:53;;;;;;;5.68;3.00;;;;;;;17.73;74.03;101454.41;5030266;28;20060;-61
2021/08/10 01:02:22;;;;;;;6.03;3.15;;;;;;;17.75;73.50;101463.22;5025188;28;20419;-58
2021/08/10 01:04:52;;;;;;;5.07;3.00;;;;;;;17.76;73.60;101467.59;5033244;28;20053;-61
2021/08/10 01:07:34;;;;;;;6.55;3.25;;;;;;;17.76;73.57;101464.03;5030814;28;20042;-60
2021/08/10 01:10:08;;;;;;;4.90;3.00;;;;;;;17.77;73.50;101460.13;5032354;28;20052;-61
2021/08/10 01:12:58;;;;;;;7.80;3.30;;;;;;;17.72;73.38;101451.94;5039970;28;20042;-60
2021/08/10 01:15:34;;;;;;;8.07;3.65;;;;;;;17.70;73.84;101452.25;5031576;28;20567;-60
2021/08/10 01:18:06;;;;;;;6.32;3.13;;;;;;;17.71;73.90;101456.66;5029148;28;20044;-61
2021/08/10 01:21:02;;;;;;;6.65;3.28;;;;;;;17.70;73.56;101451.44;5033887;28;20052;-59
2021/08/10 01:23:33;;;;;;;5.28;3.05;;;;;;;17.68;73.95;101460.03;5030551;28;20415;-61
2021/08/10 01:26:36;;;;;;;6.55;3.42;;;;;;;17.64;73.94;101442.44;5024847;28;20042;-59
2021/08/10 01:29:19;;;;;;;6.32;3.20;;;;;;;17.63;74.01;101440.78;5014760;28;20046;-58
2021/08/10 01:31:50;;;;;;;8.48;3.72;;;;;;;17.64;74.08;101448.75;5030325;28;20044;-57
2021/08/10 01:34:46;;;;;;;7.03;3.20;;;;;;;17.65;74.03;101453.16;5030445;28;20049;-61
2021/08/10 01:37:24;;;;;;;8.23;2.97;;;;;;;17.66;74.03;101459.50;5015700;28;20265;-61
2021/08/10 01:39:56;;;;;;;6.40;3.13;;;;;;;17.68;73.95;101463.59;5034409;28;20053;-61
2021/08/10 01:42:28;;;;;;;6.57;3.30;;;;;;;17.67;73.96;101448.16;5034194;28;20053;-60
2021/08/10 01:45:01;;;;;;;8.60;3.20;;;;;;;17.66;73.96;101448.47;5026464;28;20052;-60
2021/08/10 01:47:31;;;;;;;5.72;2.97;;;;;;;17.65;73.95;101447.66;5039068;28;20049;-60
2021/08/10 01:50:02;;;;;;;6.35;3.25;;;;;;;17.66;73.97;101456.75;5034122;28;20045;-60
2021/08/10 01:52:31;;;;;;;6.50;3.25;;;;;;;17.65;73.96;101458.69;5034150;28;20136;-60
2021/08/10 01:55:05;;;;;;;8.02;3.40;;;;;;;17.64;73.93;101447.94;5034013;28;20092;-60
2021/08/10 01:57:37;;;;;;;11.50;3.63;;;;;;;17.61;74.10;101448.56;5033796;28;20436;-59
2021/08/10 02:00:06;;;;;;;5.93;3.42;;;;;;;17.56;74.16;101454.97;5017420;28;20087;-59
2021/08/10 02:02:42;;;;;;;7.55;3.17;;;;;;;17.53;74.42;101443.72;5034233;28;20037;-61
2021/08/10 02:05:25;;;;;;;5.53;3.20;;;;;;;17.53;74.18;101439.00;5033959;28;20492;-61
2021/08/10 02:07:57;;;;;;;6.05;3.45;;;;;;;17.53;74.46;101433.50;5047667;28;20402;-60
2021/08/10 02:10:26;;;;;;;8.32;3.90;;;;;;;17.47;74.28;101440.22;5033411;28;20459;-60
2021/08/10 02:12:54;;;;;;;7.63;3.45;;;;;;;17.41;75.03;101456.03;5034709;28;20038;-60
2021/08/10 02:15:23;;;;;;;5.70;3.10;;;;;;;17.43;74.87;101462.03;5033731;28;20049;-61
2021/08/10 02:17:58;;;;;;;7.47;3.60;;;;;;;17.46;74.80;101444.94;5031703;28;20033;-62
2021/08/10 02:20:48;;;;;;;5.40;3.25;;;;;;;17.50;74.81;101453.41;5043924;28;20141;-57
2021/08/10 02:23:18;;;;;;;5.00;3.00;;;;;;;17.53;74.33;101443.72;5033696;28;20046;-59
2021/08/10 02:25:47;;;;;;;9.05;3.85;;;;;;;17.53;74.39;101457.50;5033835;28;20073;-60
2021/08/10 02:28:16;;;;;;;7.55;3.42;;;;;;;17.52;74.49;101453.91;5029978;28;20080;-60
2021/08/10 02:30:53;;;;;;;8.43;3.58;;;;;;;17.51;74.31;101456.97;5033736;28;20411;-61
2021/08/10 02:33:30;;;;;;;6.35;3.42;;;;;;;17.52;74.16;101459.44;5033383;28;20045;-56
2021/08/10 02:35:59;;;;;;;5.82;3.28;;;;;;;17.52;74.28;101453.09;5023459;28;20064;-56
2021/08/10 02:38:33;;;;;;;5.38;3.20;;;;;;;17.51;74.22;101456.97;5039867;28;20076;-56
2021/08/10 02:41:02;;;;;;;9.70;3.55;;;;;;;17.50;74.04;101461.66;5023051;28;20459;-60
2021/08/10 02:43:35;;;;;;;9.60;3.65;;;;;;;17.50;74.00;101460.84;5039875;28;20087;-61
2021/08/10 02:46:06;;;;;;;6.38;3.20;;;;;;;17.49;74.07;101465.56;5016975;28;20103;-57
2021/08/10 02:48:34;;;;;;;5.85;3.08;;;;;;;17.51;74.03;101451.44;5032923;28;20049;-57
2021/08/10 02:51:05;;;;;;;5.85;3.60;;;;;;;17.48;73.92;101458.38;5037650;28;20048;-57
2021/08/10 02:53:32;;;;;;;6.82;3.47;;;;;;;17.44;73.76;101455.41;5041598;28;20389;-60
2021/08/10 02:56:12;;;;;;;7.43;3.30;;;;;;;17.42;73.85;101451.34;5030720;28;20064;-59
2021/08/10 02:58:59;;;;;;;7.15;3.50;;;;;;;17.40;73.79;101457.13;5028010;28;20046;-61
2021/08/10 03:01:34;;;;;;;6.32;3.03;;;;;;;17.40;73.78;101462.63;5046459;28;20072;-59
2021/08/10 03:04:04;;;;;;;5.60;3.17;;;;;;;17.39;73.97;101455.50;5030623;28;20055;-54
2021/08/10 03:06:34;;;;;;;8.23;3.40;;;;;;;17.42;73.77;101452.16;5029913;28;20048;-58
2021/08/10 03:09:03;;;;;;;6.72;2.95;;;;;;;17.43;73.54;101453.78;5029314;28;20045;-56
2021/08/10 03:11:38;;;;;;;6.53;3.42;;;;;;;17.42;73.62;101454.91;5047064;28;20059;-60
2021/08/10 03:14:09;;;;;;;7.50;3.22;;;;;;;17.39;73.37;101455.50;5029185;28;20056;-60
2021/08/10 03:16:39;;;;;;;5.70;3.13;;;;;;;17.39;73.64;101455.50;5036086;28;20087;-61
2021/08/10 03:19:10;;;;;;;5.90;2.92;;;;;;;17.40;73.56;101462.63;5040820;28;20091;-60
2021/08/10 03:21:39;;;;;;;6.82;3.20;;;;;;;17.40;73.69;101465.38;5030825;28;20435;-58
2021/08/10 03:24:07;;;;;;;7.85;3.25;;;;;;;17.40;73.61;101457.13;5043295;28;20110;-61
2021/08/10 03:26:36;;;;;;;8.30;3.63;;;;;;;17.37;73.84;101457.72;5035610;28;20124;-60
2021/08/10 03:29:04;;;;;;;7.72;3.00;;;;;;;17.33;73.78;101464.94;5032582;28;20140;-60
2021/08/10 03:31:33;;;;;;;9.98;3.15;;;;;;;17.29;74.00;101461.13;5015886;28;20427;-58
2021/08/10 03:34:01;;;;;;;5.70;3.10;;;;;;;17.27;73.84;101452.38;5031844;28;20116;-60
2021/08/10 03:36:29;;;;;;;7.13;3.00;;;;;;;17.27;73.69;101459.81;5026515;28;20509;-61
2021/08/10 03:38:57;;;;;;;8.43;3.40;;;;;;;17.23;74.06;101462.34;5034928;28;20046;-60
2021/08/10 03:41:28;;;;;;;7.13;2.85;;;;;;;17.24;73.99;101463.97;5025615;28;20106;-61
2021/08/10 03:43:56;;;;;;;6.75;3.00;;;;;;;17.21;73.75;101459.88;5033182;28;20062;-61
2021/08/10 03:46:28;;;;;;;6.55;2.90;;;;;;;17.21;73.95;101461.81;5015698;28;20053;-60
2021/08/10 03:48:56;;;;;;;6.10;3.13;;;;;;;17.15;73.97;101454.72;5031513;28;20049;-59
2021/08/10 03:51:26;;;;;;;6.03;3.10;;;;;;;17.13;73.92;101448.72;5032103;28;20091;-59
2021/08/10 03:53:54;;;;;;;6.88;3.25;;;;;;;17.13;74.11;101452.28;5031604;28;20069;-59
2021/08/10 03:56:24;;;;;;;7.22;3.13;;;;;;;17.09;73.90;101458.69;5031678;28;20053;-61
2021/08/10 03:58:57;;;;;;;6.32;2.95;;;;;;;17.05;73.95;101450.19;5031907;28;20096;-59
2021/08/10 04:01:31;;;;;;;6.47;3.20;;;;;;;17.08;73.77;101448.78;5014990;28;20053;-61
2021/08/10 04:04:01;;;;;;;5.82;2.83;;;;;;;17.07;73.69;101452.66;5015321;28;20045;-60
2021/08/10 04:06:32;;;;;;;6.47;3.22;;;;;;;17.08;73.89;101459.78;5035264;28;20141;-59
2021/08/10 04:09:02;;;;;;;5.75;3.20;;;;;;;17.06;74.02;101446.34;5038981;28;20072;-61
2021/08/10 04:11:33;;;;;;;9.43;3.70;;;;;;;17.02;73.83;101448.03;5034601;28;20036;-57
2021/08/10 04:14:07;;;;;;;5.35;2.95;;;;;;;17.01;73.75;101449.97;5035743;28;20049;-61
2021/08/10 04:16:55;;;;;;;6.18;2.85;;;;;;;17.04;73.87;101448.56;5037338;28;20132;-60
2021/08/10 04:19:28;;;;;;;7.18;3.65;;;;;;;17.02;73.83;101457.09;5035005;28;20119;-59
2021/08/10 04:21:57;;;;;;;5.85;3.17;;;;;;;16.99;73.85;101449.44;5044264;28;20049;-61
2021/08/10 04:24:24;;;;;;;6.07;3.10;;;;;;;16.97;73.97;101457.19;5031944;28;20063;-60
2021/08/10 04:26:52;;;;;;;7.15;3.67;;;;;;;16.99;73.96;101457.72;5030790;28;20080;-59
2021/08/10 04:29:22;;;;;;;6.47;3.50;;;;;;;16.95;73.60;101456.66;5031281;28;20077;-58
2021/08/10 04:31:50;;;;;;;6.75;3.45;;;;;;;16.95;73.68;101469.59;5030781;28;20050;-59
2021/08/10 04:34:18;;;;;;;7.47;3.55;;;;;;;16.95;73.80;101461.34;5032233;28;20037;-58
2021/08/10 04:36:46;;;;;;;6.03;3.00;;;;;;;16.94;73.81;101460.53;5030886;28;20456;-57
2021/08/10 04:39:15;;;;;;;5.88;2.97;;;;;;;16.93;73.59;101463.56;5030802;28;20042;-60
2021/08/10 04:41:43;;;;;;;9.38;3.50;;;;;;;16.92;73.86;101460.00;5031075;28;20112;-59
2021/08/10 04:44:11;;;;;;;6.68;3.13;;;;;;;16.90;73.86;101467.72;5030673;28;20145;-58
2021/08/10 04:46:39;;;;;;;6.32;3.25;;;;;;;16.89;73.59;101471.63;5031032;28;20045;-60
2021/08/10 04:49:07;;;;;;;6.82;3.40;;;;;;;16.90;73.71;101475.19;5030689;28;20064;-58
2021/08/10 04:51:35;;;;;;;6.03;3.25;;;;;;;16.88;73.76;101478.22;5031848;28;20076;-58
2021/08/10 04:54:03;;;;;;;8.10;2.80;;;;;;;16.90;73.50;101476.00;5030697;28;20044;-59
2021/08/10 04:56:31;;;;;;;9.55;3.40;;;;;;;16.91;73.81;101466.63;5031957;28;20053;-58
2021/08/10 04:58:59;;;;;;;9.65;3.60;;;;;;;16.91;73.36;101466.63;5046012;28;20045;-57
2021/08/10 05:01:28;;;;;;;6.32;3.33;;;;;;;16.90;73.57;101462.22;5045383;28;20128;-60
2021/08/10 05:03:56;;;;;;;7.78;3.45;;;;;;;16.91;73.51;101466.63;5031868;28;20543;-59
2021/08/10 05:06:24;;;;;;;5.10;3.33;;;;;;;16.94;73.70;101460.53;5030156;28;20041;-60
2021/08/10 05:08:52;;;;;;;5.93;3.38;;;;;;;16.95;73.75;101464.91;5030728;28;20038;-60
2021/08/10 05:11:20;;;;;;;7.32;3.72;;;;;;;16.97;73.49;101465.44;5030673;28;20049;-60
2021/08/10 05:13:48;;;;;;;7.13;3.70;;;;;;;16.97;73.62;101476.44;5035517;28;20045;-61
2021/08/10 05:16:16;;;;;;;7.22;3.65;;;;;;;16.96;73.79;101474.00;5034767;28;20171;-60
2021/08/10 05:18:46;;;;;;;6.65;3.30;;;;;;;16.96;73.64;101482.28;5034981;28;20048;-61
2021/08/10 05:21:16;;;;;;;6.05;3.50;;;;;;;16.99;73.84;101490.75;5034288;28;20045;-59
2021/08/10 05:23:47;;;;;;;6.80;3.83;;;;;;;17.01;74.15;101487.72;5039665;28;20049;-60
2021/08/10 05:26:16;;;;;;;9.32;4.00;;;;;;;16.98;73.83;101491.88;5039737;28;20073;-61
2021/08/10 05:28:46;;;;;;;7.40;3.63;;;;;;;17.02;73.90;101495.66;5035972;28;20080;-61
2021/08/10 05:31:15;;;;;;;5.45;3.40;;;;;;;17.02;74.06;101492.91;5034291;28;20049;-60
2021/08/10 05:33:43;;;;;;;6.22;3.40;;;;;;;17.11;73.95;101508.78;5035617;28;20045;-61
2021/08/10 05:36:11;;;;;;;6.68;3.60;;;;;;;17.09;73.85;101509.06;5033979;28;20053;-59
2021/08/10 05:38:43;;;;;;;5.72;3.50;;;;;;;17.12;74.09;101507.66;5034295;28;20129;-61
2021/08/10 05:41:11;;;;;;;5.80;3.40;;;;;;;17.18;73.93;101503.72;5035606;28;20045;-61
2021/08/10 05:43:38;;;;;;;6.88;4.32;;;;;;;17.19;73.87;101499.84;5035367;28;20053;-61
2021/08/10 05:46:09;;;;;;;8.25;4.63;;;;;;;17.16;74.08;101493.00;5047916;28;20511;-59
2021/08/10 05:48:37;;;;;;;8.25;3.70;;;;;;;17.10;74.29;101501.63;5034208;28;20381;-59
2021/08/10 05:51:05;;;;;;;9.88;3.60;;;;;;;17.31;73.90;101508.50;5033440;28;20145;-60
2021/08/10 05:53:36;;;;;;;10.50;4.38;;;;;;;17.49;73.40;101504.13;5034188;28;20046;-60
2021/08/10 05:56:06;;;;;;;7.75;3.63;;;;;;;17.43;73.23;101505.31;5034084;28;20041;-59
2021/08/10 05:58:35;;;;;;;8.73;3.70;;;;;;;17.40;73.39;101514.16;4336405;28;10000438;-60
2021/08/10 06:01:05;;;;;;;6.47;3.70;;;;;;;17.34;73.60;101509.84;5031265;28;20124;-61
2021/08/10 06:03:33;;;;;;;8.43;4.35;;;;;;;17.45;73.33;101503.06;5031774;28;20369;-59
2021/08/10 06:06:02;;;;;;;7.38;4.00;;;;;;;17.34;73.72;101515.34;5031193;28;20041;-60
2021/08/10 06:08:38;;;;;;;9.98;4.07;;;;;;;17.19;73.92;101510.88;5015978;28;20408;-61
2021/08/10 06:11:05;;;;;;;8.32;4.32;;;;;;;17.27;73.91;101506.63;5029949;28;20451;-60
2021/08/10 06:13:36;;;;;;;7.63;3.92;;;;;;;17.29;73.75;101510.72;5031476;28;20451;-60
2021/08/10 06:16:05;;;;;;;8.70;3.90;;;;;;;17.28;73.82;101509.09;5030929;28;20049;-63
2021/08/10 06:18:33;;;;;;;8.60;3.83;;;;;;;17.32;73.82;101512.91;5014923;28;20060;-57
2021/08/10 06:21:04;;;;;;;9.30;3.70;;;;;;;17.23;74.33;101512.72;5030135;28;20073;-58
2021/08/10 06:23:31;;;;;;;10.43;4.75;;;;;;;17.17;74.61;101524.94;5030752;28;20128;-59
2021/08/10 06:25:59;;;;;;;9.80;3.15;;;;;;;17.19;74.06;101510.88;5030569;28;20037;-57
2021/08/10 06:28:29;;;;;;;10.68;5.00;;;;;;;17.15;74.74;101523.56;5030755;28;20057;-56
2021/08/10 06:31:01;;;;;;;9.02;3.40;;;;;;;17.35;73.92;101520.56;5038890;28;20060;-57
2021/08/10 06:33:31;;;;;;;10.30;5.10;;;;;;;17.25;73.81;101515.22;5039939;28;20133;-61
2021/08/10 06:35:58;;;;;;;7.18;3.55;;;;;;;17.18;74.31;101515.56;5039066;28;20040;-60
2021/08/10 06:38:29;;;;;;;7.53;4.15;;;;;;;17.16;74.42;101515.03;5040235;28;20045;-62
2021/08/10 06:40:56;;;;;;;10.32;4.80;;;;;;;17.19;74.75;101516.38;5034102;28;20091;-62
2021/08/10 06:43:24;;;;;;;9.10;4.10;;;;;;;17.17;75.00;101524.94;5034175;28;20133;-60
2021/08/10 06:46:12;;;;;;;9.68;4.90;;;;;;;17.13;75.47;101517.56;5035116;28;20565;-61
2021/08/10 06:48:39;;;;;;;9.20;4.53;;;;;;;17.08;75.45;101520.38;5034388;28;20045;-61
2021/08/10 06:51:07;;;;;;;8.82;4.28;;;;;;;17.07;75.78;101519.56;5038256;28;20045;-62
2021/08/10 06:53:35;;;;;;;6.65;3.80;;;;;;;17.08;75.84;101525.88;5041266;28;20053;-62
2021/08/10 06:56:03;;;;;;;8.65;4.15;;;;;;;17.08;75.67;101525.88;5049128;28;20049;-58
2021/08/10 06:58:33;;;;;;;7.65;3.80;;;;;;;17.10;75.89;101529.16;5051349;28;20571;-62
2021/08/10 07:01:20;;;;;;;8.13;4.25;;;;;;;17.17;75.55;101532.38;5020387;28;20045;-62
2021/08/10 07:03:49;;;;;;;10.38;4.35;;;;;;;17.26;74.91;101527.84;5043953;28;20051;-63
2021/08/10 07:06:19;;;;;;;10.45;4.28;;;;;;;17.30;74.67;101528.09;5036204;28;20045;-62
2021/08/10 07:08:51;;;;;;;7.85;3.83;;;;;;;17.40;74.30;101517.72;5033639;28;20045;-60
2021/08/10 07:11:19;;;;;;;8.57;4.00;;;;;;;17.29;75.36;101530.00;5035423;28;20131;-62
2021/08/10 07:13:52;;;;;;;8.48;4.20;;;;;;;17.24;75.75;101519.91;5033825;28;20124;-62
2021/08/10 07:16:21;;;;;;;7.40;4.40;;;;;;;17.33;74.84;101520.03;5048567;28;20522;-62
2021/08/10 07:18:50;;;;;;;8.52;4.25;;;;;;;17.33;74.76;101517.28;5043350;28;20099;-62
2021/08/10 07:21:22;;;;;;;7.50;3.75;;;;;;;17.35;74.53;101517.81;5035334;28;20500;-62
2021/08/10 07:23:56;;;;;;;9.10;4.50;;;;;;;17.33;75.27;101520.03;5041572;28;20503;-62
2021/08/10 07:26:26;;;;;;;10.85;4.90;;;;;;;17.42;75.32;101523.78;5036202;28;20041;-62
2021/08/10 07:28:56;;;;;;;8.70;4.90;;;;;;;17.39;75.45;101526.28;5032137;28;20042;-61
2021/08/10 07:31:28;;;;;;;8.15;3.97;;;;;;;17.31;75.56;101536.03;5032646;28;20095;-63
2021/08/10 07:33:59;;;;;;;10.38;4.70;;;;;;;17.30;76.23;101539.91;5031827;28;20056;-62
2021/08/10 07:36:30;;;;;;;9.15;4.97;;;;;;;17.27;76.38;101539.69;5031571;28;20057;-62
2021/08/10 07:39:00;;;;;;;12.55;5.60;;;;;;;17.36;75.94;101541.47;5032073;28;20088;-63
2021/08/10 07:41:29;;;;;;;10.45;4.95;;;;;;;17.41;75.65;101546.94;5031455;28;20076;-61
2021/08/10 07:43:57;;;;;;;13.68;5.10;;;;;;;17.41;75.43;101543.34;5032677;28;20120;-62
2021/08/10 07:46:26;;;;;;;12.95;4.63;;;;;;;17.44;75.69;101545.53;5031512;28;20049;-61
2021/08/10 07:48:54;;;;;;;11.30;5.13;;;;;;;17.54;75.27;101544.56;5031288;28;20055;-62
2021/08/10 07:51:23;;;;;;;12.27;4.55;;;;;;;17.63;73.99;101538.09;5015262;28;20042;-61
2021/08/10 07:53:51;;;;;;;13.13;5.50;;;;;;;17.73;74.99;101539.88;5045284;28;20041;-62
2021/08/10 07:56:18;;;;;;;9.90;5.15;;;;;;;17.60;75.15;101543.34;5032605;28;20033;-60
2021/08/10 07:58:49;;;;;;;11.15;4.72;;;;;;;17.72;74.73;101546.47;5031773;28;20042;-62
2021/08/10 08:01:17;;;;;;;10.75;4.95;;;;;;;17.61;75.45;101542.25;5030407;28;20045;-62
2021/08/10 08:03:45;;;;;;;14.93;5.10;;;;;;;17.79;73.67;101540.59;5031704;28;20440;-62
2021/08/10 08:06:13;;;;;;;13.10;5.70;;;;;;;17.82;74.47;101537.25;5031401;28;20048;-61
2021/08/10 08:08:42;;;;;;;11.40;5.50;;;;;;;17.72;74.56;101540.97;5031650;28;20049;-62
2021/08/10 08:11:15;;;;;;;11.48;5.10;;;;;;;17.67;74.58;101544.63;5030727;28;20033;-61
2021/08/10 08:13:42;;;;;;;9.43;4.50;;;;;;;17.63;74.94;101535.31;5032275;28;20120;-62
2021/08/10 08:16:10;;;;;;;13.80;4.90;;;;;;;17.74;74.75;101543.44;5030962;28;20045;-60
2021/08/10 08:18:38;;;;;;;14.95;5.72;;;;;;;17.79;74.27;101535.91;5031399;28;20128;-62
2021/08/10 08:21:05;;;;;;;12.93;5.35;;;;;;;17.72;74.25;101531.88;5030973;28;20045;-59
2021/08/10 08:23:38;;;;;;;10.18;5.13;;;;;;;17.79;74.58;101533.13;5044029;28;20049;-61
2021/08/10 08:26:07;;;;;;;14.52;5.05;;;;;;;17.65;74.21;101535.84;5030965;28;20444;-61
2021/08/10 08:28:38;;;;;;;12.73;5.03;;;;;;;17.63;73.88;101526.22;5031059;28;20072;-61
2021/08/10 08:31:07;;;;;;;10.10;4.25;;;;;;;17.65;73.73;101529.50;5030357;28;20087;-60
2021/08/10 08:33:36;;;;;;;14.25;4.80;;;;;;;17.71;73.83;101531.06;5014280;28;20050;-61
2021/08/10 08:36:05;;;;;;;12.38;5.07;;;;;;;17.87;73.21;101542.69;5030728;28;20029;-62
2021/08/10 08:38:33;;;;;;;12.88;5.13;;;;;;;17.90;72.90;101530.28;5030982;28;20041;-60
2021/08/10 08:41:05;;;;;;;11.73;4.97;;;;;;;18.01;72.83;101537.25;5030446;28;20068;-60
2021/08/10 08:43:33;;;;;;;13.40;5.53;;;;;;;18.13;72.58;101534.84;5027243;28;20111;-60
2021/08/10 08:46:01;;;;;;;13.90;4.78;;;;;;;18.24;72.35;101536.31;5031438;28;20047;-58
2021/08/10 08:48:34;;;;;;;11.23;4.78;;;;;;;18.14;72.13;101532.91;5030512;28;20053;-60
2021/08/10 08:51:04;;;;;;;9.80;4.47;;;;;;;18.02;72.50;101530.63;5030237;28;20041;-62
2021/08/10 08:53:34;;;;;;;10.20;4.50;;;;;;;17.91;72.86;101531.91;5025185;28;20063;-62
2021/08/10 08:56:04;;;;;;;12.98;4.40;;;;;;;17.87;73.03;101532.50;5034228;28;20121;-61
2021/08/10 08:58:32;;;;;;;9.70;4.40;;;;;;;17.88;73.53;101522.28;5040526;28;20371;-61
2021/08/10 09:00:59;;;;;;;10.40;5.18;;;;;;;17.96;73.48;101523.53;5030005;28;20046;-60
2021/08/10 09:03:27;;;;;;;11.27;4.45;;;;;;;18.01;73.03;101515.19;5030602;28;20136;-61
2021/08/10 09:05:56;;;;;;;9.38;4.28;;;;;;;18.06;72.68;101528.88;5044524;28;20052;-60
2021/08/10 09:08:28;;;;;;;12.30;4.97;;;;;;;18.04;72.44;101531.16;5030479;28;20495;-61
2021/08/10 09:11:02;;;;;;;7.38;3.10;;;;;;;18.10;72.06;101524.41;5029992;28;20045;-58
2021/08/10 09:13:32;;;;;;;11.65;4.55;;;;;;;18.35;71.40;101525.09;5030417;28;20041;-61
2021/08/10 09:16:04;;;;;;;10.52;4.28;;;;;;;18.35;71.16;101522.31;5030149;28;20459;-57
2021/08/10 09:18:34;;;;;;;9.32;4.35;;;;;;;18.36;70.47;101526.72;5030786;28;20488;-59
2021/08/10 09:21:07;;;;;;;7.68;3.45;;;;;;;18.36;70.58;101532.25;5028592;28;20049;-61
2021/08/10 09:23:36;;;;;;;13.02;4.47;;;;;;;18.28;70.94;101531.81;5044410;28;20068;-61
2021/08/10 09:26:05;;;;;;;8.27;4.30;;;;;;;18.22;71.23;101533.03;5031526;28;20492;-62
2021/08/10 09:28:34;;;;;;;10.98;4.25;;;;;;;18.35;71.25;101530.59;5028655;28;20075;-60
2021/08/10 09:31:31;;;;;;;10.65;3.40;;;;;;;18.28;71.16;101537.34;5031168;28;20049;-61
2021/08/10 09:34:15;;;;;;;9.65;3.90;;;;;;;18.54;70.06;101536.88;5031539;28;20803;-61
2021/08/10 09:36:43;;;;;;;8.63;3.60;;;;;;;18.48;70.14;101538.91;5031413;28;20037;-59
2021/08/10 09:39:12;;;;;;;6.95;3.47;;;;;;;18.48;70.14;101540.88;5030452;28;20077;-59
2021/08/10 09:41:40;;;;;;;7.70;3.38;;;;;;;18.37;70.40;101529.16;5029773;28;20061;-60
2021/08/10 09:44:19;;;;;;;5.75;3.03;;;;;;;18.53;70.38;101533.28;5029683;28;20054;-61
2021/08/10 09:46:50;;;;;;;7.85;3.22;;;;;;;18.55;70.25;101535.75;5031678;28;20052;-61
2021/08/10 09:49:19;;;;;;;5.45;2.90;;;;;;;18.66;69.88;101536.38;5031375;28;20046;-61
2021/08/10 09:51:49;;;;;;;8.75;3.60;;;;;;;18.77;69.35;101537.03;5031660;28;20069;-61
2021/08/10 09:54:18;;;;;;;8.30;3.45;;;;;;;18.74;69.53;101527.41;5030051;28;20575;-61
2021/08/10 09:56:53;;;;;;;10.23;4.50;;;;;;;18.69;69.93;101535.78;5029870;28;20129;-63
2021/08/10 09:59:47;;;;;;;8.85;3.15;;;;;;;18.70;70.28;101531.88;5033035;28;20512;-61
2021/08/10 10:02:22;;;;;;;5.63;3.20;;;;;;;18.73;69.92;101537.59;5033773;28;20440;-60
2021/08/10 10:04:51;;;;;;;9.27;3.60;;;;;;;18.91;69.78;101532.34;5034692;28;20538;-60
2021/08/10 10:07:20;;;;;;;6.05;3.28;;;;;;;18.97;69.34;101520.06;5033806;28;20300;-61
2021/08/10 10:09:56;;;;;;;6.40;3.00;;;;;;;18.91;69.87;101518.53;5047361;28;20044;-61
2021/08/10 10:12:28;;;;;;;9.73;3.65;;;;;;;18.89;69.43;101527.13;5037128;28;20056;-61
2021/08/10 10:14:59;;;;;;;9.07;3.40;;;;;;;18.88;69.56;101521.88;5034013;28;20041;-61
2021/08/10 10:17:32;;;;;;;5.97;2.53;;;;;;;19.03;70.56;101524.34;5034817;28;20037;-61
2021/08/10 10:20:00;;;;;;;9.10;3.50;;;;;;;19.07;69.46;101519.03;5034397;28;20073;-61
2021/08/10 10:22:31;;;;;;;7.13;3.03;;;;;;;19.01;69.91;101518.31;5034701;28;20045;-61
2021/08/10 10:25:00;;;;;;;14.40;3.78;;;;;;;18.93;69.82;101519.88;5033205;28;20412;-61
2021/08/10 10:27:29;;;;;;;7.55;3.30;;;;;;;18.93;69.76;101514.34;5034237;28;20037;-61
2021/08/10 10:29:57;;;;;;;6.63;2.92;;;;;;;18.95;69.06;101522.28;5034195;28;20424;-61
2021/08/10 10:32:25;;;;;;;7.05;3.33;;;;;;;19.12;69.31;101527.19;5033966;28;20033;-61
2021/08/10 10:34:53;;;;;;;10.43;3.88;;;;;;;19.31;67.76;101518.78;5033154;28;20041;-60
2021/08/10 10:37:23;;;;;;;8.07;3.60;;;;;;;19.26;67.70;101521.66;5034147;28;20029;-61
2021/08/10 10:40:00;;;;;;;8.45;3.35;;;;;;;19.22;67.16;101520.63;5033891;28;20053;-60
2021/08/10 10:42:28;;;;;;;7.60;3.05;;;;;;;19.26;67.71;101525.22;4335734;28;10000638;-61
2021/08/10 10:44:55;;;;;;;7.25;3.28;;;;;;;19.33;67.35;101522.06;5030486;28;20041;-61
2021/08/10 10:47:29;;;;;;;5.32;2.85;;;;;;;19.37;67.92;101520.31;5031979;28;20052;-60
2021/08/10 10:49:56;;;;;;;6.38;3.47;;;;;;;19.30;67.05;101522.69;5031806;28;20046;-61
2021/08/10 10:52:31;;;;;;;4.93;3.13;;;;;;;19.30;67.74;101509.69;5031449;28;20053;-61
2021/08/10 10:55:00;;;;;;;6.53;3.17;;;;;;;19.32;67.61;101515.72;5031912;28;20124;-61
2021/08/10 10:57:32;;;;;;;6.50;3.38;;;;;;;19.35;67.82;101514.28;5031480;28;20043;-61
2021/08/10 11:00:08;;;;;;;6.43;3.38;;;;;;;19.33;67.09;101522.88;5031766;28;20667;-61
2021/08/10 11:02:36;;;;;;;6.38;3.53;;;;;;;19.40;66.64;101518.88;5031469;28;20041;-61
2021/08/10 11:05:08;;;;;;;5.32;2.65;;;;;;;19.45;67.20;101513.22;5031351;28;20510;-61
2021/08/10 11:07:55;;;;;;;6.38;3.13;;;;;;;19.71;66.95;101511.53;5031860;28;20038;-60
2021/08/10 11:10:38;;;;;;;5.28;2.60;;;;;;;19.75;66.70;101501.47;5030248;28;20069;-61
2021/08/10 11:13:33;;;;;;;7.18;3.20;;;;;;;19.89;65.83;101509.72;5031593;28;20037;-61
2021/08/10 11:16:01;;;;;;;7.63;3.63;;;;;;;19.81;65.67;101509.66;5031371;28;20044;-61
2021/08/10 11:18:29;;;;;;;6.82;3.10;;;;;;;19.78;65.43;101508.34;5031150;28;20041;-61
2021/08/10 11:21:00;;;;;;;9.05;3.67;;;;;;;19.85;62.94;101503.19;5031432;28;20377;-61
2021/08/10 11:23:27;;;;;;;7.30;3.10;;;;;;;19.84;64.86;101497.97;5030966;28;20049;-61
2021/08/10 11:26:09;;;;;;;7.97;3.50;;;;;;;19.83;64.77;101497.16;5029888;28;20044;-61
2021/08/10 11:28:38;;;;;;;7.35;3.20;;;;;;;19.81;63.67;101507.69;5030668;28;20769;-60
2021/08/10 11:31:08;;;;;;;5.65;3.15;;;;;;;19.76;64.52;101510.59;5030428;28;20412;-56
2021/08/10 11:33:44;;;;;;;7.10;3.10;;;;;;;19.70;64.68;101504.38;5031118;28;20072;-54
2021/08/10 11:36:12;;;;;;;6.00;3.40;;;;;;;19.71;64.68;101505.19;5030786;28;20048;-52
2021/08/10 11:38:51;;;;;;;8.68;3.72;;;;;;;19.73;64.17;101508.47;5030857;28;20042;-56
2021/08/10 11:41:27;;;;;;;8.05;3.47;;;;;;;19.68;64.29;101516.88;5029911;28;20057;-57